sensor_id;sensor_type;location;lat;lon;timestamp;temperature;humidity
34542;DHT22;20784;51.332;12.410;2023-04-24T00:00:25;14.50;99.90
34542;DHT22;20784;51.332;12.410;2023-04-24T00:02:51;14.50;99.90
34542;DHT22;20784;51.332;12.410;2023-04-24T00:05:17;14.50;99.90
34542;DHT22;20784;51.332;12.410;2023-04-24T00:07:44;14.50;99.90
34542;DHT22;20784;51.332;12.410;2023-04-24T00:10:10;14.50;99.90
34542;DHT22;20784;51.332;12.410;2023-04-24T00:12:36;14.40;99.90
34542;DHT22;20784;51.332;12.410;2023-04-24T00:15:03;14.40;99.90
34542;DHT22;20784;51.332;12.410;2023-04-24T00:17:28;14.40;99.90
34542;DHT22;20784;51.332;12.410;2023-04-24T00:19:54;14.40;99.90
34542;DHT22;20784;51.332;12.410;2023-04-24T00:22:28;14.40;99.90
34542;DHT22;20784;51.332;12.410;2023-04-24T00:24:54;14.40;99.90
34542;DHT22;20784;51.332;12.410;2023-04-24T00:27:20;14.40;99.90
34542;DHT22;20784;51.332;12.410;2023-04-24T00:29:46;14.40;99.90
34542;DHT22;20784;51.332;12.410;2023-04-24T00:32:12;14.30;99.90
34542;DHT22;20784;51.332;12.410;2023-04-24T00:34:37;14.30;99.90
34542;DHT22;20784;51.332;12.410;2023-04-24T00:37:06;14.30;99.90
34542;DHT22;20784;51.332;12.410;2023-04-24T00:39:32;14.30;99.90
34542;DHT22;20784;51.332;12.410;2023-04-24T00:41:57;14.20;99.90
34542;DHT22;20784;51.332;12.410;2023-04-24T00:44:23;14.10;99.90
34542;DHT22;20784;51.332;12.410;2023-04-24T00:46:49;14.10;99.90
34542;DHT22;20784;51.332;12.410;2023-04-24T00:49:20;14.00;99.90
34542;DHT22;20784;51.332;12.410;2023-04-24T00:51:46;13.90;99.90
34542;DHT22;20784;51.332;12.410;2023-04-24T00:54:21;13.90;99.90
34542;DHT22;20784;51.332;12.410;2023-04-24T00:56:46;13.80;99.90
34542;DHT22;20784;51.332;12.410;2023-04-24T00:59:12;13.90;99.90
34542;DHT22;20784;51.332;12.410;2023-04-24T01:01:39;13.80;99.90
34542;DHT22;20784;51.332;12.410;2023-04-24T01:04:07;13.80;99.90
34542;DHT22;20784;51.332;12.410;2023-04-24T01:06:35;13.70;99.90
34542;DHT22;20784;51.332;12.410;2023-04-24T01:09:03;13.70;99.90
34542;DHT22;20784;51.332;12.410;2023-04-24T01:11:29;13.60;99.90
34542;DHT22;20784;51.332;12.410;2023-04-24T01:13:55;13.50;99.90
34542;DHT22;20784;51.332;12.410;2023-04-24T01:16:21;13.50;99.90
34542;DHT22;20784;51.332;12.410;2023-04-24T01:18:47;13.50;99.90
34542;DHT22;20784;51.332;12.410;2023-04-24T01:21:14;13.40;99.90
34542;DHT22;20784;51.332;12.410;2023-04-24T01:23:43;13.40;99.90
34542;DHT22;20784;51.332;12.410;2023-04-24T01:26:09;13.50;99.90
34542;DHT22;20784;51.332;12.410;2023-04-24T01:28:37;13.50;99.90
34542;DHT22;20784;51.332;12.410;2023-04-24T01:31:03;13.40;99.90
34542;DHT22;20784;51.332;12.410;2023-04-24T01:33:32;13.50;99.90
34542;DHT22;20784;51.332;12.410;2023-04-24T01:35:58;13.50;99.90
34542;DHT22;20784;51.332;12.410;2023-04-24T01:38:24;13.50;99.90
34542;DHT22;20784;51.332;12.410;2023-04-24T01:40:51;13.50;99.90
34542;DHT22;20784;51.332;12.410;2023-04-24T01:43:25;13.40;99.90
34542;DHT22;20784;51.332;12.410;2023-04-24T01:45:51;13.30;99.90
34542;DHT22;20784;51.332;12.410;2023-04-24T01:48:17;13.30;99.90
34542;DHT22;20784;51.332;12.410;2023-04-24T01:50:43;13.30;99.90
34542;DHT22;20784;51.332;12.410;2023-04-24T01:53:08;13.30;99.90
34542;DHT22;20784;51.332;12.410;2023-04-24T01:55:34;13.30;99.90
34542;DHT22;20784;51.332;12.410;2023-04-24T01:58:00;13.40;99.90
34542;DHT22;20784;51.332;12.410;2023-04-24T02:00:26;13.30;99.90
34542;DHT22;20784;51.332;12.410;2023-04-24T02:02:52;13.30;99.90
34542;DHT22;20784;51.332;12.410;2023-04-24T02:05:20;13.30;99.90
34542;DHT22;20784;51.332;12.410;2023-04-24T02:07:46;13.20;99.90
34542;DHT22;20784;51.332;12.410;2023-04-24T02:10:11;13.20;99.90
34542;DHT22;20784;51.332;12.410;2023-04-24T02:12:37;13.20;99.90
34542;DHT22;20784;51.332;12.410;2023-04-24T02:15:03;13.20;99.90
34542;DHT22;20784;51.332;12.410;2023-04-24T02:17:29;13.10;99.90
34542;DHT22;20784;51.332;12.410;2023-04-24T02:19:56;13.20;99.90
34542;DHT22;20784;51.332;12.410;2023-04-24T02:22:21;13.10;99.90
34542;DHT22;20784;51.332;12.410;2023-04-24T02:24:47;13.10;99.90
34542;DHT22;20784;51.332;12.410;2023-04-24T02:27:12;13.10;99.90
34542;DHT22;20784;51.332;12.410;2023-04-24T02:29:38;13.10;99.90
34542;DHT22;20784;51.332;12.410;2023-04-24T02:32:04;13.10;99.90
34542;DHT22;20784;51.332;12.410;2023-04-24T02:34:29;13.00;99.90
34542;DHT22;20784;51.332;12.410;2023-04-24T02:36:55;12.80;99.90
34542;DHT22;20784;51.332;12.410;2023-04-24T02:39:21;12.90;99.90
34542;DHT22;20784;51.332;12.410;2023-04-24T02:41:46;12.90;99.90
34542;DHT22;20784;51.332;12.410;2023-04-24T02:44:12;12.90;99.90
34542;DHT22;20784;51.332;12.410;2023-04-24T02:46:37;12.90;99.90
34542;DHT22;20784;51.332;12.410;2023-04-24T02:49:03;12.90;99.90
34542;DHT22;20784;51.332;12.410;2023-04-24T02:51:29;12.90;99.90
34542;DHT22;20784;51.332;12.410;2023-04-24T02:53:55;12.80;99.90
34542;DHT22;20784;51.332;12.410;2023-04-24T02:56:20;12.70;99.90
34542;DHT22;20784;51.332;12.410;2023-04-24T02:58:46;12.70;99.90
34542;DHT22;20784;51.332;12.410;2023-04-24T03:01:11;12.70;99.90
34542;DHT22;20784;51.332;12.410;2023-04-24T03:03:38;12.70;99.90
34542;DHT22;20784;51.332;12.410;2023-04-24T03:06:07;12.70;99.90
34542;DHT22;20784;51.332;12.410;2023-04-24T03:08:33;12.70;99.90
34542;DHT22;20784;51.332;12.410;2023-04-24T03:10:59;12.70;99.90
34542;DHT22;20784;51.332;12.410;2023-04-24T03:13:27;12.70;99.90
34542;DHT22;20784;51.332;12.410;2023-04-24T03:15:53;12.70;99.90
34542;DHT22;20784;51.332;12.410;2023-04-24T03:18:19;12.70;99.90
34542;DHT22;20784;51.332;12.410;2023-04-24T03:20:47;12.70;99.90
34542;DHT22;20784;51.332;12.410;2023-04-24T03:23:13;12.70;99.90
34542;DHT22;20784;51.332;12.410;2023-04-24T03:25:39;12.70;99.90
34542;DHT22;20784;51.332;12.410;2023-04-24T03:28:04;12.70;99.90
34542;DHT22;20784;51.332;12.410;2023-04-24T03:30:33;12.70;99.90
34542;DHT22;20784;51.332;12.410;2023-04-24T03:32:58;12.70;99.90
34542;DHT22;20784;51.332;12.410;2023-04-24T03:35:24;12.70;99.90
34542;DHT22;20784;51.332;12.410;2023-04-24T03:37:52;12.60;99.90
34542;DHT22;20784;51.332;12.410;2023-04-24T03:40:17;12.60;99.90
34542;DHT22;20784;51.332;12.410;2023-04-24T03:42:43;12.60;99.90
34542;DHT22;20784;51.332;12.410;2023-04-24T03:45:09;12.60;99.90
34542;DHT22;20784;51.332;12.410;2023-04-24T03:47:35;12.60;99.90
34542;DHT22;20784;51.332;12.410;2023-04-24T03:50:01;12.60;99.90
34542;DHT22;20784;51.332;12.410;2023-04-24T03:52:26;12.60;99.90
34542;DHT22;20784;51.332;12.410;2023-04-24T03:54:52;12.50;99.90
34542;DHT22;20784;51.332;12.410;2023-04-24T03:57:18;12.50;99.90
34542;DHT22;20784;51.332;12.410;2023-04-24T03:59:50;12.50;99.90
34542;DHT22;20784;51.332;12.410;2023-04-24T04:02:15;12.50;99.90
34542;DHT22;20784;51.332;12.410;2023-04-24T04:04:41;12.50;99.90
34542;DHT22;20784;51.332;12.410;2023-04-24T04:07:06;12.50;99.90
34542;DHT22;20784;51.332;12.410;2023-04-24T04:09:33;12.50;99.90
34542;DHT22;20784;51.332;12.410;2023-04-24T04:11:59;12.50;99.90
34542;DHT22;20784;51.332;12.410;2023-04-24T04:14:28;12.50;99.90
34542;DHT22;20784;51.332;12.410;2023-04-24T04:16:54;12.60;99.90
34542;DHT22;20784;51.332;12.410;2023-04-24T04:19:19;12.60;99.90
34542;DHT22;20784;51.332;12.410;2023-04-24T04:21:47;12.60;99.90
34542;DHT22;20784;51.332;12.410;2023-04-24T04:24:18;12.60;99.90
34542;DHT22;20784;51.332;12.410;2023-04-24T04:26:51;12.60;99.90
34542;DHT22;20784;51.332;12.410;2023-04-24T04:29:18;12.60;99.90
34542;DHT22;20784;51.332;12.410;2023-04-24T04:31:44;12.60;99.90
34542;DHT22;20784;51.332;12.410;2023-04-24T04:34:12;12.60;99.90
34542;DHT22;20784;51.332;12.410;2023-04-24T04:36:40;12.60;99.90
34542;DHT22;20784;51.332;12.410;2023-04-24T04:39:06;12.70;99.90
34542;DHT22;20784;51.332;12.410;2023-04-24T04:41:32;12.70;99.90
34542;DHT22;20784;51.332;12.410;2023-04-24T04:44:01;12.70;99.90
34542;DHT22;20784;51.332;12.410;2023-04-24T04:46:27;12.80;99.90
34542;DHT22;20784;51.332;12.410;2023-04-24T04:48:53;12.80;99.90
34542;DHT22;20784;51.332;12.410;2023-04-24T04:51:19;12.70;99.90
34542;DHT22;20784;51.332;12.410;2023-04-24T04:53:45;12.80;99.90
34542;DHT22;20784;51.332;12.410;2023-04-24T04:56:11;12.80;99.90
34542;DHT22;20784;51.332;12.410;2023-04-24T04:58:39;12.80;99.90
34542;DHT22;20784;51.332;12.410;2023-04-24T05:01:07;12.80;99.90
34542;DHT22;20784;51.332;12.410;2023-04-24T05:03:41;12.80;99.90
34542;DHT22;20784;51.332;12.410;2023-04-24T05:06:10;12.90;99.90
34542;DHT22;20784;51.332;12.410;2023-04-24T05:08:43;12.90;99.90
34542;DHT22;20784;51.332;12.410;2023-04-24T05:11:08;12.90;99.90
34542;DHT22;20784;51.332;12.410;2023-04-24T05:13:36;12.80;99.90
34542;DHT22;20784;51.332;12.410;2023-04-24T05:16:05;12.80;99.90
34542;DHT22;20784;51.332;12.410;2023-04-24T05:18:31;12.80;99.90
34542;DHT22;20784;51.332;12.410;2023-04-24T05:20:57;12.70;99.90
34542;DHT22;20784;51.332;12.410;2023-04-24T05:23:23;12.80;99.90
34542;DHT22;20784;51.332;12.410;2023-04-24T05:25:51;12.90;99.90
34542;DHT22;20784;51.332;12.410;2023-04-24T05:28:19;12.90;99.90
34542;DHT22;20784;51.332;12.410;2023-04-24T05:30:46;13.00;99.90
34542;DHT22;20784;51.332;12.410;2023-04-24T05:33:14;13.00;99.90
34542;DHT22;20784;51.332;12.410;2023-04-24T05:35:40;13.10;99.90
34542;DHT22;20784;51.332;12.410;2023-04-24T05:38:11;13.10;99.90
34542;DHT22;20784;51.332;12.410;2023-04-24T05:40:37;13.10;99.90
34542;DHT22;20784;51.332;12.410;2023-04-24T05:43:03;13.10;99.90
34542;DHT22;20784;51.332;12.410;2023-04-24T05:45:45;13.20;99.90
34542;DHT22;20784;51.332;12.410;2023-04-24T05:48:49;13.20;99.90
34542;DHT22;20784;51.332;12.410;2023-04-24T05:51:31;13.30;99.90
34542;DHT22;20784;51.332;12.410;2023-04-24T05:53:57;13.30;99.90
34542;DHT22;20784;51.332;12.410;2023-04-24T05:56:42;13.30;99.90
34542;DHT22;20784;51.332;12.410;2023-04-24T06:02:06;13.40;99.90
34542;DHT22;20784;51.332;12.410;2023-04-24T06:04:48;13.50;99.90
34542;DHT22;20784;51.332;12.410;2023-04-24T06:31:31;13.60;99.90
34542;DHT22;20784;51.332;12.410;2023-04-24T06:34:46;13.50;99.90
34542;DHT22;20784;51.332;12.410;2023-04-24T06:37:53;13.60;99.90
34542;DHT22;20784;51.332;12.410;2023-04-24T06:40:22;13.60;99.90
34542;DHT22;20784;51.332;12.410;2023-04-24T06:43:41;13.60;99.90
34542;DHT22;20784;51.332;12.410;2023-04-24T06:46:19;13.60;99.90
34542;DHT22;20784;51.332;12.410;2023-04-24T06:49:43;13.80;99.90
34542;DHT22;20784;51.332;12.410;2023-04-24T07:06:36;13.70;99.90
34542;DHT22;20784;51.332;12.410;2023-04-24T07:09:17;13.70;99.90
34542;DHT22;20784;51.332;12.410;2023-04-24T07:12:05;13.80;99.90
34542;DHT22;20784;51.332;12.410;2023-04-24T07:17:39;13.90;99.90
34542;DHT22;20784;51.332;12.410;2023-04-24T07:23:21;14.00;99.90
34542;DHT22;20784;51.332;12.410;2023-04-24T07:26:31;14.10;99.90
34542;DHT22;20784;51.332;12.410;2023-04-24T07:29:02;14.20;99.90
34542;DHT22;20784;51.332;12.410;2023-04-24T07:31:28;14.20;99.90
34542;DHT22;20784;51.332;12.410;2023-04-24T07:33:53;14.30;99.90
34542;DHT22;20784;51.332;12.410;2023-04-24T07:36:19;14.30;99.90
34542;DHT22;20784;51.332;12.410;2023-04-24T07:38:50;14.30;99.90
34542;DHT22;20784;51.332;12.410;2023-04-24T07:41:19;14.30;99.90
34542;DHT22;20784;51.332;12.410;2023-04-24T07:43:46;14.40;99.90
34542;DHT22;20784;51.332;12.410;2023-04-24T07:46:12;14.40;99.90
34542;DHT22;20784;51.332;12.410;2023-04-24T07:48:37;14.40;99.90
34542;DHT22;20784;51.332;12.410;2023-04-24T07:51:03;14.50;99.90
34542;DHT22;20784;51.332;12.410;2023-04-24T07:53:42;14.60;99.90
34542;DHT22;20784;51.332;12.410;2023-04-24T07:56:10;14.70;99.90
34542;DHT22;20784;51.332;12.410;2023-04-24T07:58:36;14.60;99.90
34542;DHT22;20784;51.332;12.410;2023-04-24T08:01:07;14.60;99.90
34542;DHT22;20784;51.332;12.410;2023-04-24T08:03:33;14.70;99.90
34542;DHT22;20784;51.332;12.410;2023-04-24T08:05:58;15.10;99.90
34542;DHT22;20784;51.332;12.410;2023-04-24T08:08:27;15.30;99.90
34542;DHT22;20784;51.332;12.410;2023-04-24T08:10:56;15.30;99.90
34542;DHT22;20784;51.332;12.410;2023-04-24T08:35:43;16.60;99.90
34542;DHT22;20784;51.332;12.410;2023-04-24T08:38:08;16.50;99.90
34542;DHT22;20784;51.332;12.410;2023-04-24T08:40:42;16.60;99.90
34542;DHT22;20784;51.332;12.410;2023-04-24T08:43:09;16.90;99.90
34542;DHT22;20784;51.332;12.410;2023-04-24T08:45:36;17.00;99.90
34542;DHT22;20784;51.332;12.410;2023-04-24T08:48:09;16.80;99.90
34542;DHT22;20784;51.332;12.410;2023-04-24T08:50:38;16.70;99.90
34542;DHT22;20784;51.332;12.410;2023-04-24T08:53:10;16.50;99.90
34542;DHT22;20784;51.332;12.410;2023-04-24T08:55:37;16.20;99.90
34542;DHT22;20784;51.332;12.410;2023-04-24T08:58:04;16.20;99.90
34542;DHT22;20784;51.332;12.410;2023-04-24T09:00:30;16.40;99.90
34542;DHT22;20784;51.332;12.410;2023-04-24T09:03:00;16.70;99.90
34542;DHT22;20784;51.332;12.410;2023-04-24T09:05:27;17.30;99.90
34542;DHT22;20784;51.332;12.410;2023-04-24T09:08:01;17.60;99.90
34542;DHT22;20784;51.332;12.410;2023-04-24T09:10:30;17.90;99.90
34542;DHT22;20784;51.332;12.410;2023-04-24T09:12:56;17.80;99.90
34542;DHT22;20784;51.332;12.410;2023-04-24T09:15:24;17.70;99.90
34542;DHT22;20784;51.332;12.410;2023-04-24T09:17:53;17.40;99.90
34542;DHT22;20784;51.332;12.410;2023-04-24T09:20:19;16.90;99.90
34542;DHT22;20784;51.332;12.410;2023-04-24T09:22:47;16.80;99.90
34542;DHT22;20784;51.332;12.410;2023-04-24T09:25:18;16.80;99.90
34542;DHT22;20784;51.332;12.410;2023-04-24T09:27:59;16.70;99.90
34542;DHT22;20784;51.332;12.410;2023-04-24T09:30:25;16.70;99.90
34542;DHT22;20784;51.332;12.410;2023-04-24T09:33:17;16.60;99.90
34542;DHT22;20784;51.332;12.410;2023-04-24T09:35:50;16.60;99.90
34542;DHT22;20784;51.332;12.410;2023-04-24T09:38:38;16.40;99.90
34542;DHT22;20784;51.332;12.410;2023-04-24T09:41:13;16.20;99.90
34542;DHT22;20784;51.332;12.410;2023-04-24T09:43:39;16.10;99.90
34542;DHT22;20784;51.332;12.410;2023-04-24T09:46:10;16.00;99.90
34542;DHT22;20784;51.332;12.410;2023-04-24T09:48:39;15.80;99.90
34542;DHT22;20784;51.332;12.410;2023-04-24T09:51:35;15.90;99.90
34542;DHT22;20784;51.332;12.410;2023-04-24T09:54:20;15.70;99.90
34542;DHT22;20784;51.332;12.410;2023-04-24T09:56:50;15.70;99.90
34542;DHT22;20784;51.332;12.410;2023-04-24T09:59:22;15.70;99.90
34542;DHT22;20784;51.332;12.410;2023-04-24T10:01:50;16.00;99.90
34542;DHT22;20784;51.332;12.410;2023-04-24T10:04:21;16.20;99.90
34542;DHT22;20784;51.332;12.410;2023-04-24T10:06:56;16.50;99.90
34542;DHT22;20784;51.332;12.410;2023-04-24T10:09:24;16.70;99.90
34542;DHT22;20784;51.332;12.410;2023-04-24T10:11:51;16.90;99.90
34542;DHT22;20784;51.332;12.410;2023-04-24T10:14:24;17.10;99.90
34542;DHT22;20784;51.332;12.410;2023-04-24T10:16:51;16.80;99.90
34542;DHT22;20784;51.332;12.410;2023-04-24T10:19:18;16.70;99.90
34542;DHT22;20784;51.332;12.410;2023-04-24T10:21:46;16.70;99.90
34542;DHT22;20784;51.332;12.410;2023-04-24T10:24:16;16.60;99.90
34542;DHT22;20784;51.332;12.410;2023-04-24T10:26:43;16.40;99.90
34542;DHT22;20784;51.332;12.410;2023-04-24T10:29:10;16.20;99.90
34542;DHT22;20784;51.332;12.410;2023-04-24T10:31:37;16.10;99.90
34542;DHT22;20784;51.332;12.410;2023-04-24T10:34:05;16.00;99.90
34542;DHT22;20784;51.332;12.410;2023-04-24T10:36:33;16.30;99.90
34542;DHT22;20784;51.332;12.410;2023-04-24T10:39:02;16.90;99.90
34542;DHT22;20784;51.332;12.410;2023-04-24T10:41:32;17.50;99.90
34542;DHT22;20784;51.332;12.410;2023-04-24T10:44:14;17.60;99.90
34542;DHT22;20784;51.332;12.410;2023-04-24T10:46:44;17.10;99.90
34542;DHT22;20784;51.332;12.410;2023-04-24T10:49:10;17.10;99.90
34542;DHT22;20784;51.332;12.410;2023-04-24T10:51:46;17.30;99.90
34542;DHT22;20784;51.332;12.410;2023-04-24T10:54:26;17.50;99.90
34542;DHT22;20784;51.332;12.410;2023-04-24T10:56:53;18.10;99.90
34542;DHT22;20784;51.332;12.410;2023-04-24T10:59:34;18.40;99.90
34542;DHT22;20784;51.332;12.410;2023-04-24T11:02:00;18.30;99.90
34542;DHT22;20784;51.332;12.410;2023-04-24T11:04:32;18.30;99.90
34542;DHT22;20784;51.332;12.410;2023-04-24T11:06:58;18.20;99.90
34542;DHT22;20784;51.332;12.410;2023-04-24T11:09:27;18.30;99.90
34542;DHT22;20784;51.332;12.410;2023-04-24T11:12:06;18.00;99.90
34542;DHT22;20784;51.332;12.410;2023-04-24T11:17:32;18.80;99.90
34542;DHT22;20784;51.332;12.410;2023-04-24T11:20:09;18.50;99.90
34542;DHT22;20784;51.332;12.410;2023-04-24T11:22:36;18.60;99.90
34542;DHT22;20784;51.332;12.410;2023-04-24T11:25:03;18.50;99.90
34542;DHT22;20784;51.332;12.410;2023-04-24T11:27:42;18.40;99.90
34542;DHT22;20784;51.332;12.410;2023-04-24T11:30:09;18.70;99.90
34542;DHT22;20784;51.332;12.410;2023-04-24T11:32:39;19.30;99.90
34542;DHT22;20784;51.332;12.410;2023-04-24T11:35:07;19.60;99.90
34542;DHT22;20784;51.332;12.410;2023-04-24T11:37:36;19.00;99.90
34542;DHT22;20784;51.332;12.410;2023-04-24T11:40:02;18.50;99.90
34542;DHT22;20784;51.332;12.410;2023-04-24T11:42:34;18.50;99.90
34542;DHT22;20784;51.332;12.410;2023-04-24T11:45:00;18.80;99.90
34542;DHT22;20784;51.332;12.410;2023-04-24T11:47:31;18.80;99.90
34542;DHT22;20784;51.332;12.410;2023-04-24T11:49:58;18.80;99.90
34542;DHT22;20784;51.332;12.410;2023-04-24T11:52:25;18.80;99.90
34542;DHT22;20784;51.332;12.410;2023-04-24T11:54:50;18.40;99.90
34542;DHT22;20784;51.332;12.410;2023-04-24T11:57:18;18.10;99.90
34542;DHT22;20784;51.332;12.410;2023-04-24T11:59:44;18.10;99.90
34542;DHT22;20784;51.332;12.410;2023-04-24T12:02:29;18.00;99.90
34542;DHT22;20784;51.332;12.410;2023-04-24T12:04:54;18.10;99.90
34542;DHT22;20784;51.332;12.410;2023-04-24T12:07:21;18.40;99.90
34542;DHT22;20784;51.332;12.410;2023-04-24T12:09:57;18.40;99.90
34542;DHT22;20784;51.332;12.410;2023-04-24T12:12:26;18.80;99.90
34542;DHT22;20784;51.332;12.410;2023-04-24T12:14:56;18.90;99.90
34542;DHT22;20784;51.332;12.410;2023-04-24T12:17:27;18.70;99.90
34542;DHT22;20784;51.332;12.410;2023-04-24T12:19:57;18.40;99.90
34542;DHT22;20784;51.332;12.410;2023-04-24T12:22:24;18.30;99.90
34542;DHT22;20784;51.332;12.410;2023-04-24T12:25:03;18.10;99.90
34542;DHT22;20784;51.332;12.410;2023-04-24T12:27:32;18.10;99.90
34542;DHT22;20784;51.332;12.410;2023-04-24T12:29:59;18.40;99.90
34542;DHT22;20784;51.332;12.410;2023-04-24T12:32:26;18.60;99.90
34542;DHT22;20784;51.332;12.410;2023-04-24T12:34:55;18.80;99.90
34542;DHT22;20784;51.332;12.410;2023-04-24T12:37:24;19.20;99.90
34542;DHT22;20784;51.332;12.410;2023-04-24T12:40:01;19.10;99.90
34542;DHT22;20784;51.332;12.410;2023-04-24T12:42:29;18.70;99.90
34542;DHT22;20784;51.332;12.410;2023-04-24T12:45:03;18.50;99.90
34542;DHT22;20784;51.332;12.410;2023-04-24T12:47:29;18.40;99.90
34542;DHT22;20784;51.332;12.410;2023-04-24T12:49:55;18.00;99.90
34542;DHT22;20784;51.332;12.410;2023-04-24T12:52:26;17.70;99.90
34542;DHT22;20784;51.332;12.410;2023-04-24T12:54:56;17.60;99.90
34542;DHT22;20784;51.332;12.410;2023-04-24T12:57:22;17.80;99.90
34542;DHT22;20784;51.332;12.410;2023-04-24T12:59:48;17.60;99.90
34542;DHT22;20784;51.332;12.410;2023-04-24T13:02:13;17.50;99.90
34542;DHT22;20784;51.332;12.410;2023-04-24T13:04:49;17.50;99.90
34542;DHT22;20784;51.332;12.410;2023-04-24T13:07:15;17.60;99.90
34542;DHT22;20784;51.332;12.410;2023-04-24T13:09:42;17.80;99.90
34542;DHT22;20784;51.332;12.410;2023-04-24T13:12:08;17.80;99.90
34542;DHT22;20784;51.332;12.410;2023-04-24T13:14:34;18.00;99.90
34542;DHT22;20784;51.332;12.410;2023-04-24T13:17:00;18.10;99.90
34542;DHT22;20784;51.332;12.410;2023-04-24T13:19:29;18.30;99.90
34542;DHT22;20784;51.332;12.410;2023-04-24T13:21:56;18.10;99.90
34542;DHT22;20784;51.332;12.410;2023-04-24T13:24:25;18.00;99.90
34542;DHT22;20784;51.332;12.410;2023-04-24T13:26:52;18.20;99.90
34542;DHT22;20784;51.332;12.410;2023-04-24T13:29:20;17.90;99.90
34542;DHT22;20784;51.332;12.410;2023-04-24T13:31:51;17.70;99.90
34542;DHT22;20784;51.332;12.410;2023-04-24T13:34:17;17.50;99.90
34542;DHT22;20784;51.332;12.410;2023-04-24T13:36:45;17.60;99.90
34542;DHT22;20784;51.332;12.410;2023-04-24T13:39:14;17.50;99.90
34542;DHT22;20784;51.332;12.410;2023-04-24T13:41:39;17.30;99.90
34542;DHT22;20784;51.332;12.410;2023-04-24T13:44:06;17.50;99.90
34542;DHT22;20784;51.332;12.410;2023-04-24T13:46:31;17.80;99.90
34542;DHT22;20784;51.332;12.410;2023-04-24T13:48:58;17.90;99.90
34542;DHT22;20784;51.332;12.410;2023-04-24T13:51:25;17.90;99.90
34542;DHT22;20784;51.332;12.410;2023-04-24T13:53:52;17.60;99.90
34542;DHT22;20784;51.332;12.410;2023-04-24T13:56:18;17.50;99.90
34542;DHT22;20784;51.332;12.410;2023-04-24T13:58:43;17.20;99.90
34542;DHT22;20784;51.332;12.410;2023-04-24T14:01:09;17.00;99.90
34542;DHT22;20784;51.332;12.410;2023-04-24T14:03:37;16.80;99.90
34542;DHT22;20784;51.332;12.410;2023-04-24T14:06:02;16.80;99.90
34542;DHT22;20784;51.332;12.410;2023-04-24T14:08:50;16.70;99.90
34542;DHT22;20784;51.332;12.410;2023-04-24T14:11:38;16.60;99.90
34542;DHT22;20784;51.332;12.410;2023-04-24T14:14:08;16.60;99.90
34542;DHT22;20784;51.332;12.410;2023-04-24T14:16:37;16.60;99.90
34542;DHT22;20784;51.332;12.410;2023-04-24T14:19:20;16.80;99.90
34542;DHT22;20784;51.332;12.410;2023-04-24T14:21:54;17.00;99.90
34542;DHT22;20784;51.332;12.410;2023-04-24T14:24:32;16.90;99.90
34542;DHT22;20784;51.332;12.410;2023-04-24T14:26:58;16.60;99.90
34542;DHT22;20784;51.332;12.410;2023-04-24T14:29:46;16.50;99.90
34542;DHT22;20784;51.332;12.410;2023-04-24T14:32:17;16.50;99.90
34542;DHT22;20784;51.332;12.410;2023-04-24T14:35:20;16.60;99.90
34542;DHT22;20784;51.332;12.410;2023-04-24T14:38:11;16.50;99.90
34542;DHT22;20784;51.332;12.410;2023-04-24T14:40:40;16.60;99.90
34542;DHT22;20784;51.332;12.410;2023-04-24T14:43:08;16.40;99.90
34542;DHT22;20784;51.332;12.410;2023-04-24T14:49:17;16.30;99.90
34542;DHT22;20784;51.332;12.410;2023-04-24T14:51:43;16.20;99.90
34542;DHT22;20784;51.332;12.410;2023-04-24T14:54:15;16.10;99.90
34542;DHT22;20784;51.332;12.410;2023-04-24T14:56:56;16.10;99.90
34542;DHT22;20784;51.332;12.410;2023-04-24T14:59:29;16.10;99.90
34542;DHT22;20784;51.332;12.410;2023-04-24T15:02:06;15.90;99.90
34542;DHT22;20784;51.332;12.410;2023-04-24T15:04:31;15.70;99.90
34542;DHT22;20784;51.332;12.410;2023-04-24T15:07:03;15.60;99.90
34542;DHT22;20784;51.332;12.410;2023-04-24T15:09:42;15.50;99.90
34542;DHT22;20784;51.332;12.410;2023-04-24T15:12:17;15.50;99.90
34542;DHT22;20784;51.332;12.410;2023-04-24T15:14:45;15.20;99.90
34542;DHT22;20784;51.332;12.410;2023-04-24T15:17:11;15.20;99.90
34542;DHT22;20784;51.332;12.410;2023-04-24T15:19:37;15.10;99.90
34542;DHT22;20784;51.332;12.410;2023-04-24T15:22:02;15.10;99.90
34542;DHT22;20784;51.332;12.410;2023-04-24T15:24:30;14.90;99.90
34542;DHT22;20784;51.332;12.410;2023-04-24T15:26:56;14.80;99.90
34542;DHT22;20784;51.332;12.410;2023-04-24T15:29:22;14.80;99.90
34542;DHT22;20784;51.332;12.410;2023-04-24T15:31:55;14.80;99.90
34542;DHT22;20784;51.332;12.410;2023-04-24T15:34:21;14.80;99.90
34542;DHT22;20784;51.332;12.410;2023-04-24T15:36:46;14.70;99.90
34542;DHT22;20784;51.332;12.410;2023-04-24T15:39:12;14.70;99.90
34542;DHT22;20784;51.332;12.410;2023-04-24T15:41:38;14.70;99.90
34542;DHT22;20784;51.332;12.410;2023-04-24T15:44:03;14.70;99.90
34542;DHT22;20784;51.332;12.410;2023-04-24T15:46:29;14.90;99.90
34542;DHT22;20784;51.332;12.410;2023-04-24T15:48:55;14.90;99.90
34542;DHT22;20784;51.332;12.410;2023-04-24T15:51:21;14.70;99.90
34542;DHT22;20784;51.332;12.410;2023-04-24T15:53:46;14.60;99.90
34542;DHT22;20784;51.332;12.410;2023-04-24T15:56:12;14.60;99.90
34542;DHT22;20784;51.332;12.410;2023-04-24T15:58:40;14.50;99.90
34542;DHT22;20784;51.332;12.410;2023-04-24T16:01:10;14.50;99.90
34542;DHT22;20784;51.332;12.410;2023-04-24T16:03:41;14.40;99.90
34542;DHT22;20784;51.332;12.410;2023-04-24T16:06:07;14.30;99.90
34542;DHT22;20784;51.332;12.410;2023-04-24T16:08:34;14.30;99.90
34542;DHT22;20784;51.332;12.410;2023-04-24T16:11:02;14.20;99.90
34542;DHT22;20784;51.332;12.410;2023-04-24T16:13:28;14.30;99.90
34542;DHT22;20784;51.332;12.410;2023-04-24T16:15:56;14.30;99.90
34542;DHT22;20784;51.332;12.410;2023-04-24T16:18:21;14.20;99.90
34542;DHT22;20784;51.332;12.410;2023-04-24T16:20:57;14.30;99.90
34542;DHT22;20784;51.332;12.410;2023-04-24T16:23:36;14.30;99.90
34542;DHT22;20784;51.332;12.410;2023-04-24T16:26:02;14.40;99.90
34542;DHT22;20784;51.332;12.410;2023-04-24T16:28:28;14.30;99.90
34542;DHT22;20784;51.332;12.410;2023-04-24T16:30:53;14.40;99.90
34542;DHT22;20784;51.332;12.410;2023-04-24T16:33:19;14.30;99.90
34542;DHT22;20784;51.332;12.410;2023-04-24T16:35:44;14.40;99.90
34542;DHT22;20784;51.332;12.410;2023-04-24T16:38:11;14.30;99.90
34542;DHT22;20784;51.332;12.410;2023-04-24T16:40:37;14.20;99.90
34542;DHT22;20784;51.332;12.410;2023-04-24T16:43:03;14.10;99.90
34542;DHT22;20784;51.332;12.410;2023-04-24T16:45:28;14.00;99.90